sensor_id;sensor_type;location;lat;lon;timestamp;pressure;altitude;pressure_sealevel;temperature;humidity
57192;BME280;43052;52.588;13.396;2022-12-29T00:02:17;100238.84;;;8.17;71.94
57192;BME280;43052;52.588;13.396;2022-12-29T00:04:43;100238.81;;;8.23;71.89
57192;BME280;43052;52.588;13.396;2022-12-29T00:07:08;100220.56;;;8.25;71.66
57192;BME280;43052;52.588;13.396;2022-12-29T00:09:34;100232.69;;;8.29;71.49
57192;BME280;43052;52.588;13.396;2022-12-29T00:12:01;100232.69;;;8.34;71.56
57192;BME280;43052;52.588;13.396;2022-12-29T00:14:27;100228.31;;;8.34;71.44
57192;BME280;43052;52.588;13.396;2022-12-29T00:17:11;100223.13;;;8.29;71.34
57192;BME280;43052;52.588;13.396;2022-12-29T00:19:36;100224.88;;;8.32;71.28
57192;BME280;43052;52.588;13.396;2022-12-29T00:22:21;100230.03;;;8.40;71.12
57192;BME280;43052;52.588;13.396;2022-12-29T00:25:05;100227.44;;;8.41;71.19
57192;BME280;43052;52.588;13.396;2022-12-29T00:27:51;100218.72;;;8.42;71.03
57192;BME280;43052;52.588;13.396;2022-12-29T00:30:35;100210.91;;;8.42;70.89
57192;BME280;43052;52.588;13.396;2022-12-29T00:33:22;100215.22;;;8.53;70.92
57192;BME280;43052;52.588;13.396;2022-12-29T00:36:16;100221.31;;;8.53;70.70
57192;BME280;43052;52.588;13.396;2022-12-29T00:38:47;100212.66;;;8.51;70.66
57192;BME280;43052;52.588;13.396;2022-12-29T00:41:31;100202.22;;;8.51;70.74
57192;BME280;43052;52.588;13.396;2022-12-29T00:44:15;100211.75;;;8.51;71.02
57192;BME280;43052;52.588;13.396;2022-12-29T00:46:42;100199.63;;;8.42;71.21
57192;BME280;43052;52.588;13.396;2022-12-29T00:49:09;100204.84;;;8.48;71.31
57192;BME280;43052;52.588;13.396;2022-12-29T00:51:55;100209.19;;;8.48;71.17
57192;BME280;43052;52.588;13.396;2022-12-29T00:54:20;100197.88;;;8.45;70.95
57192;BME280;43052;52.588;13.396;2022-12-29T00:56:50;100202.22;;;8.45;71.09
57192;BME280;43052;52.588;13.396;2022-12-29T00:59:16;100199.63;;;8.43;71.16
57192;BME280;43052;52.588;13.396;2022-12-29T01:01:41;100185.72;;;8.46;71.28
57192;BME280;43052;52.588;13.396;2022-12-29T01:04:08;100195.28;;;8.47;71.06
57192;BME280;43052;52.588;13.396;2022-12-29T01:06:36;100190.94;;;8.44;71.33
57192;BME280;43052;52.588;13.396;2022-12-29T01:09:02;100188.34;;;8.43;71.27
57192;BME280;43052;52.588;13.396;2022-12-29T01:11:46;100183.13;;;8.40;71.30
57192;BME280;43052;52.588;13.396;2022-12-29T01:14:11;100186.63;;;8.37;71.31
57192;BME280;43052;52.588;13.396;2022-12-29T01:16:36;100175.38;;;8.29;71.54
57192;BME280;43052;52.588;13.396;2022-12-29T01:19:02;100184.91;;;8.35;71.35
57192;BME280;43052;52.588;13.396;2022-12-29T01:21:27;100183.16;;;8.35;71.53
57192;BME280;43052;52.588;13.396;2022-12-29T01:23:52;100177.94;;;8.35;71.45
57192;BME280;43052;52.588;13.396;2022-12-29T01:26:18;100193.56;;;8.38;71.42
57192;BME280;43052;52.588;13.396;2022-12-29T01:28:43;100176.22;;;8.32;71.35
57192;BME280;43052;52.588;13.396;2022-12-29T01:31:10;100184.03;;;8.40;71.38
57192;BME280;43052;52.588;13.396;2022-12-29T01:33:35;100179.66;;;8.38;71.24
57192;BME280;43052;52.588;13.396;2022-12-29T01:36:02;100185.72;;;8.44;71.41
57192;BME280;43052;52.588;13.396;2022-12-29T01:38:27;100183.13;;;8.48;71.23
57192;BME280;43052;52.588;13.396;2022-12-29T01:40:52;100176.16;;;8.48;71.44
57192;BME280;43052;52.588;13.396;2022-12-29T01:43:17;100184.00;;;8.50;71.52
57192;BME280;43052;52.588;13.396;2022-12-29T01:45:50;100185.69;;;8.51;71.42
57192;BME280;43052;52.588;13.396;2022-12-29T01:48:18;100179.63;;;8.53;71.56
57192;BME280;43052;52.588;13.396;2022-12-29T01:50:50;100174.41;;;8.53;71.45
57192;BME280;43052;52.588;13.396;2022-12-29T01:53:21;100178.75;;;8.54;71.59
57192;BME280;43052;52.588;13.396;2022-12-29T01:55:52;100179.59;;;8.55;71.54
57192;BME280;43052;52.588;13.396;2022-12-29T01:58:20;100155.31;;;8.48;71.41
57192;BME280;43052;52.588;13.396;2022-12-29T02:00:48;100163.97;;;8.52;71.44
57192;BME280;43052;52.588;13.396;2022-12-29T02:03:13;100153.59;;;8.47;71.48
57192;BME280;43052;52.588;13.396;2022-12-29T02:05:48;100152.72;;;8.50;71.60
57192;BME280;43052;52.588;13.396;2022-12-29T02:08:15;100153.56;;;8.50;71.78
57192;BME280;43052;52.588;13.396;2022-12-29T02:10:41;100152.72;;;8.50;71.66
57192;BME280;43052;52.588;13.396;2022-12-29T02:13:07;100149.25;;;8.48;72.03
57192;BME280;43052;52.588;13.396;2022-12-29T02:21:31;100138.81;;;8.49;71.90
57192;BME280;43052;52.588;13.396;2022-12-29T02:24:18;100129.25;;;8.51;71.87
57192;BME280;43052;52.588;13.396;2022-12-29T02:27:04;100130.97;;;8.51;72.01
57192;BME280;43052;52.588;13.396;2022-12-29T02:30:12;100130.09;;;8.52;71.94
57192;BME280;43052;52.588;13.396;2022-12-29T02:32:53;100124.00;;;8.56;71.90
57192;BME280;43052;52.588;13.396;2022-12-29T02:35:38;100121.41;;;8.56;71.68
57192;BME280;43052;52.588;13.396;2022-12-29T02:38:13;100120.53;;;8.57;71.60
57192;BME280;43052;52.588;13.396;2022-12-29T02:43:45;100116.22;;;8.51;71.69
57192;BME280;43052;52.588;13.396;2022-12-29T02:46:28;100114.50;;;8.50;71.56
57192;BME280;43052;52.588;13.396;2022-12-29T02:49:24;100114.47;;;8.55;71.19
57192;BME280;43052;52.588;13.396;2022-12-29T02:52:01;100120.50;;;8.60;71.05
57192;BME280;43052;52.588;13.396;2022-12-29T02:54:28;100109.19;;;8.62;70.78
57192;BME280;43052;52.588;13.396;2022-12-29T02:59:36;100104.78;;;8.71;70.50
57192;BME280;43052;52.588;13.396;2022-12-29T03:02:17;100104.75;;;8.72;70.15
57192;BME280;43052;52.588;13.396;2022-12-29T03:05:15;100104.75;;;8.75;69.68
57192;BME280;43052;52.588;13.396;2022-12-29T03:10:48;100105.50;;;8.87;69.54
57192;BME280;43052;52.588;13.396;2022-12-29T03:13:44;100101.13;;;8.90;69.45
57192;BME280;43052;52.588;13.396;2022-12-29T03:19:06;100072.34;;;9.00;68.98
57192;BME280;43052;52.588;13.396;2022-12-29T03:21:37;100074.06;;;9.02;68.88
57192;BME280;43052;52.588;13.396;2022-12-29T03:24:26;100078.41;;;9.02;68.58
57192;BME280;43052;52.588;13.396;2022-12-29T03:26:54;100089.66;;;9.08;68.69
57192;BME280;43052;52.588;13.396;2022-12-29T03:29:22;100080.91;;;9.13;68.55
57192;BME280;43052;52.588;13.396;2022-12-29T03:31:49;100074.81;;;9.15;68.53
57192;BME280;43052;52.588;13.396;2022-12-29T03:34:17;100072.16;;;9.20;68.32
57192;BME280;43052;52.588;13.396;2022-12-29T03:36:51;100073.84;;;9.24;68.33
57192;BME280;43052;52.588;13.396;2022-12-29T03:39:20;100068.66;;;9.22;68.05
57192;BME280;43052;52.588;13.396;2022-12-29T03:41:50;100075.53;;;9.30;67.96
57192;BME280;43052;52.588;13.396;2022-12-29T03:44:19;100068.50;;;9.33;67.61
57192;BME280;43052;52.588;13.396;2022-12-29T03:46:45;100062.38;;;9.36;67.62
57192;BME280;43052;52.588;13.396;2022-12-29T03:49:10;100062.41;;;9.37;67.35
57192;BME280;43052;52.588;13.396;2022-12-29T03:51:35;100071.97;;;9.38;67.41
57192;BME280;43052;52.588;13.396;2022-12-29T03:54:00;100072.78;;;9.40;67.45
57192;BME280;43052;52.588;13.396;2022-12-29T03:56:26;100077.09;;;9.45;67.31
57192;BME280;43052;52.588;13.396;2022-12-29T03:58:51;100075.28;;;9.50;67.22
57192;BME280;43052;52.588;13.396;2022-12-29T04:01:16;100073.53;;;9.52;67.39
57192;BME280;43052;52.588;13.396;2022-12-29T04:03:42;100075.25;;;9.53;67.10
57192;BME280;43052;52.588;13.396;2022-12-29T04:06:07;100073.50;;;9.55;66.92
57192;BME280;43052;52.588;13.396;2022-12-29T04:08:33;100059.59;;;9.53;66.75
57192;BME280;43052;52.588;13.396;2022-12-29T04:10:58;100062.97;;;9.61;66.65
57192;BME280;43052;52.588;13.396;2022-12-29T04:13:23;100066.44;;;9.63;66.68
57192;BME280;43052;52.588;13.396;2022-12-29T04:15:48;100074.25;;;9.63;66.64
57192;BME280;43052;52.588;13.396;2022-12-29T04:18:14;100062.88;;;9.67;66.56
57192;BME280;43052;52.588;13.396;2022-12-29T04:20:39;100060.22;;;9.72;66.51
57192;BME280;43052;52.588;13.396;2022-12-29T04:23:23;100069.72;;;9.78;66.61
57192;BME280;43052;52.588;13.396;2022-12-29T04:25:48;100061.84;;;9.81;66.51
57192;BME280;43052;52.588;13.396;2022-12-29T04:28:14;100077.47;;;9.84;66.36
57192;BME280;43052;52.588;13.396;2022-12-29T04:30:40;100070.56;;;9.80;66.29
57192;BME280;43052;52.588;13.396;2022-12-29T04:33:05;100062.59;;;9.89;66.39
57192;BME280;43052;52.588;13.396;2022-12-29T04:35:30;100049.66;;;9.81;66.29
57192;BME280;43052;52.588;13.396;2022-12-29T04:37:56;100050.53;;;9.82;66.18
57192;BME280;43052;52.588;13.396;2022-12-29T04:40:21;100052.31;;;9.77;66.54
57192;BME280;43052;52.588;13.396;2022-12-29T04:42:48;100035.84;;;9.73;66.54
57192;BME280;43052;52.588;13.396;2022-12-29T04:45:13;100056.72;;;9.73;66.51
57192;BME280;43052;52.588;13.396;2022-12-29T04:47:38;100045.44;;;9.71;66.26
57192;BME280;43052;52.588;13.396;2022-12-29T04:50:04;100051.59;;;9.67;66.32
57192;BME280;43052;52.588;13.396;2022-12-29T04:52:29;100047.28;;;9.63;66.32
57192;BME280;43052;52.588;13.396;2022-12-29T04:54:55;100047.34;;;9.60;66.49
57192;BME280;43052;52.588;13.396;2022-12-29T04:57:20;100040.41;;;9.55;66.61
57192;BME280;43052;52.588;13.396;2022-12-29T04:59:45;100045.66;;;9.52;66.45
57192;BME280;43052;52.588;13.396;2022-12-29T05:02:10;100045.66;;;9.52;66.59
57192;BME280;43052;52.588;13.396;2022-12-29T05:04:35;100043.06;;;9.54;66.65
57192;BME280;43052;52.588;13.396;2022-12-29T05:07:01;100043.03;;;9.55;66.88
57192;BME280;43052;52.588;13.396;2022-12-29T05:09:26;100029.94;;;9.57;66.61
57192;BME280;43052;52.588;13.396;2022-12-29T05:11:51;100037.78;;;9.59;66.74
57192;BME280;43052;52.588;13.396;2022-12-29T05:14:16;100034.28;;;9.58;66.65
57192;BME280;43052;52.588;13.396;2022-12-29T05:16:42;100039.44;;;9.63;66.75
57192;BME280;43052;52.588;13.396;2022-12-29T05:19:07;100035.94;;;9.64;66.68
57192;BME280;43052;52.588;13.396;2022-12-29T05:21:32;100022.03;;;9.65;66.57
57192;BME280;43052;52.588;13.396;2022-12-29T05:23:57;100022.94;;;9.62;66.63
57192;BME280;43052;52.588;13.396;2022-12-29T05:26:23;100013.34;;;9.63;66.72
57192;BME280;43052;52.588;13.396;2022-12-29T05:28:48;100016.78;;;9.66;66.59
57192;BME280;43052;52.588;13.396;2022-12-29T05:31:13;100020.22;;;9.68;66.70
57192;BME280;43052;52.588;13.396;2022-12-29T05:33:38;100010.69;;;9.66;66.73
57192;BME280;43052;52.588;13.396;2022-12-29T05:36:08;100013.31;;;9.66;66.59
57192;BME280;43052;52.588;13.396;2022-12-29T05:38:34;100001.94;;;9.68;66.82
57192;BME280;43052;52.588;13.396;2022-12-29T05:40:59;100003.66;;;9.72;66.69
57192;BME280;43052;52.588;13.396;2022-12-29T05:43:24;99997.47;;;9.77;66.95
57192;BME280;43052;52.588;13.396;2022-12-29T05:45:50;99984.50;;;9.74;66.83
57192;BME280;43052;52.588;13.396;2022-12-29T05:48:15;99986.09;;;9.82;66.56
57192;BME280;43052;52.588;13.396;2022-12-29T05:50:41;100000.78;;;9.91;66.68
57192;BME280;43052;52.588;13.396;2022-12-29T05:53:06;99999.88;;;9.94;66.55
57192;BME280;43052;52.588;13.396;2022-12-29T05:55:32;99991.97;;;9.98;66.71
57192;BME280;43052;52.588;13.396;2022-12-29T05:57:57;100000.63;;;10.00;66.34
57192;BME280;43052;52.588;13.396;2022-12-29T06:00:23;99994.47;;;10.04;66.46
57192;BME280;43052;52.588;13.396;2022-12-29T06:02:49;99978.81;;;10.01;66.37
57192;BME280;43052;52.588;13.396;2022-12-29T06:05:14;99990.94;;;10.09;66.59
57192;BME280;43052;52.588;13.396;2022-12-29T06:07:40;99985.63;;;10.12;66.00
57192;BME280;43052;52.588;13.396;2022-12-29T06:10:05;99985.59;;;10.15;66.47
57192;BME280;43052;52.588;13.396;2022-12-29T06:12:31;99969.88;;;10.18;66.39
57192;BME280;43052;52.588;13.396;2022-12-29T06:14:56;99978.53;;;10.20;66.43
57192;BME280;43052;52.588;13.396;2022-12-29T06:17:21;99987.19;;;10.25;66.60
57192;BME280;43052;52.588;13.396;2022-12-29T06:19:46;99978.41;;;10.28;66.32
57192;BME280;43052;52.588;13.396;2022-12-29T06:22:12;99982.81;;;10.26;66.32
57192;BME280;43052;52.588;13.396;2022-12-29T06:24:37;99992.25;;;10.33;66.18
57192;BME280;43052;52.588;13.396;2022-12-29T06:27:03;99988.75;;;10.35;66.02
57192;BME280;43052;52.588;13.396;2022-12-29T06:29:28;99975.78;;;10.29;66.03
57192;BME280;43052;52.588;13.396;2022-12-29T06:31:53;99985.25;;;10.38;66.11
57192;BME280;43052;52.588;13.396;2022-12-29T06:34:23;100000.88;;;10.43;65.86
57192;BME280;43052;52.588;13.396;2022-12-29T06:36:48;99989.53;;;10.42;66.25
57192;BME280;43052;52.588;13.396;2022-12-29T06:39:14;99999.97;;;10.44;66.11
57192;BME280;43052;52.588;13.396;2022-12-29T06:41:39;100005.94;;;10.52;65.99
57192;BME280;43052;52.588;13.396;2022-12-29T06:44:04;100003.28;;;10.54;65.93
57192;BME280;43052;52.588;13.396;2022-12-29T06:46:29;99992.81;;;10.54;65.98
57192;BME280;43052;52.588;13.396;2022-12-29T06:48:55;99989.38;;;10.53;65.93
57192;BME280;43052;52.588;13.396;2022-12-29T06:51:20;99987.50;;;10.58;65.64
57192;BME280;43052;52.588;13.396;2022-12-29T06:53:45;100000.59;;;10.58;65.47
57192;BME280;43052;52.588;13.396;2022-12-29T06:56:10;100000.59;;;10.58;65.61
57192;BME280;43052;52.588;13.396;2022-12-29T06:58:36;100008.47;;;10.57;65.56
57192;BME280;43052;52.588;13.396;2022-12-29T07:01:01;100005.00;;;10.55;65.31
57192;BME280;43052;52.588;13.396;2022-12-29T07:03:26;100007.75;;;10.48;65.66
57192;BME280;43052;52.588;13.396;2022-12-29T07:05:51;100006.97;;;10.42;65.89
57192;BME280;43052;52.588;13.396;2022-12-29T07:08:17;100011.38;;;10.37;66.13
57192;BME280;43052;52.588;13.396;2022-12-29T07:10:42;100002.78;;;10.30;66.18
57192;BME280;43052;52.588;13.396;2022-12-29T07:13:07;100002.88;;;10.25;66.15
57192;BME280;43052;52.588;13.396;2022-12-29T07:15:33;100003.78;;;10.21;66.53
57192;BME280;43052;52.588;13.396;2022-12-29T07:17:58;100015.19;;;10.17;66.37
57192;BME280;43052;52.588;13.396;2022-12-29T07:20:24;100011.72;;;10.15;66.98
57192;BME280;43052;52.588;13.396;2022-12-29T07:22:49;100019.47;;;10.21;66.57
57192;BME280;43052;52.588;13.396;2022-12-29T07:25:14;100011.59;;;10.24;66.72
57192;BME280;43052;52.588;13.396;2022-12-29T07:27:39;100002.75;;;10.31;66.64
57192;BME280;43052;52.588;13.396;2022-12-29T07:30:05;100003.59;;;10.33;66.55
57192;BME280;43052;52.588;13.396;2022-12-29T07:32:34;100000.16;;;10.30;66.48
57192;BME280;43052;52.588;13.396;2022-12-29T07:34:59;100004.59;;;10.26;66.69
57192;BME280;43052;52.588;13.396;2022-12-29T07:37:26;100002.91;;;10.22;66.57
57192;BME280;43052;52.588;13.396;2022-12-29T07:39:51;99995.09;;;10.21;66.97
57192;BME280;43052;52.588;13.396;2022-12-29T07:42:16;99992.59;;;10.13;66.87
57192;BME280;43052;52.588;13.396;2022-12-29T07:44:41;99998.59;;;10.19;67.09
57192;BME280;43052;52.588;13.396;2022-12-29T07:47:06;99995.03;;;10.24;67.05
57192;BME280;43052;52.588;13.396;2022-12-29T07:49:32;99989.72;;;10.30;66.84
57192;BME280;43052;52.588;13.396;2022-12-29T07:51:57;99993.09;;;10.35;66.73
57192;BME280;43052;52.588;13.396;2022-12-29T07:54:23;99992.06;;;10.47;66.34
57192;BME280;43052;52.588;13.396;2022-12-29T07:56:48;99998.69;;;10.66;65.98
57192;BME280;43052;52.588;13.396;2022-12-29T07:59:13;99996.94;;;10.67;65.91
57192;BME280;43052;52.588;13.396;2022-12-29T08:01:39;100006.31;;;10.79;65.78
57192;BME280;43052;52.588;13.396;2022-12-29T08:04:05;100011.59;;;10.76;65.61
57192;BME280;43052;52.588;13.396;2022-12-29T08:06:30;100010.63;;;10.81;65.62
57192;BME280;43052;52.588;13.396;2022-12-29T08:08:56;100006.31;;;10.79;65.72
57192;BME280;43052;52.588;13.396;2022-12-29T08:11:21;100004.34;;;10.90;65.24
57192;BME280;43052;52.588;13.396;2022-12-29T08:13:47;100001.91;;;11.28;64.77
57192;BME280;43052;52.588;13.396;2022-12-29T08:16:12;99999.09;;;11.36;64.29
57192;BME280;43052;52.588;13.396;2022-12-29T08:18:37;99998.50;;;11.23;64.70
57192;BME280;43052;52.588;13.396;2022-12-29T08:21:03;100005.63;;;11.15;64.74
57192;BME280;43052;52.588;13.396;2022-12-29T08:23:29;100002.34;;;11.05;64.93
57192;BME280;43052;52.588;13.396;2022-12-29T08:25:59;99998.94;;;11.00;64.78
57192;BME280;43052;52.588;13.396;2022-12-29T08:28:24;100004.31;;;10.93;64.95
57192;BME280;43052;52.588;13.396;2022-12-29T08:30:49;99997.47;;;10.85;64.89
57192;BME280;43052;52.588;13.396;2022-12-29T08:33:14;100007.22;;;10.78;65.13
57192;BME280;43052;52.588;13.396;2022-12-29T08:35:40;100008.22;;;10.71;65.54
57192;BME280;43052;52.588;13.396;2022-12-29T08:38:05;100002.19;;;10.65;65.64
57192;BME280;43052;52.588;13.396;2022-12-29T08:40:30;99980.56;;;10.57;65.71
57192;BME280;43052;52.588;13.396;2022-12-29T08:42:55;99980.63;;;10.53;65.73
57192;BME280;43052;52.588;13.396;2022-12-29T08:45:20;99996.25;;;10.57;65.87
57192;BME280;43052;52.588;13.396;2022-12-29T08:47:46;99988.22;;;10.66;65.92
57192;BME280;43052;52.588;13.396;2022-12-29T08:50:11;100002.91;;;10.75;65.52
57192;BME280;43052;52.588;13.396;2022-12-29T08:52:36;99993.28;;;11.64;65.19
57192;BME280;43052;52.588;13.396;2022-12-29T08:55:02;99991.34;;;13.73;60.95
57192;BME280;43052;52.588;13.396;2022-12-29T08:57:27;99996.78;;;15.01;57.13
57192;BME280;43052;52.588;13.396;2022-12-29T08:59:52;99997.09;;;15.41;55.73
57192;BME280;43052;52.588;13.396;2022-12-29T09:02:17;99990.22;;;15.13;55.10
57192;BME280;43052;52.588;13.396;2022-12-29T09:04:42;99979.66;;;14.90;55.80
57192;BME280;43052;52.588;13.396;2022-12-29T09:07:08;99977.38;;;15.04;55.04
57192;BME280;43052;52.588;13.396;2022-12-29T09:09:33;99970.56;;;15.46;54.26
57192;BME280;43052;52.588;13.396;2022-12-29T09:11:58;99971.41;;;16.35;51.95
57192;BME280;43052;52.588;13.396;2022-12-29T09:14:24;99976.38;;;16.84;50.09
57192;BME280;43052;52.588;13.396;2022-12-29T09:16:51;99979.22;;;16.80;50.19
57192;BME280;43052;52.588;13.396;2022-12-29T09:19:35;99979.94;;;16.42;50.23
57192;BME280;43052;52.588;13.396;2022-12-29T09:22:00;99973.66;;;18.02;48.66
57192;BME280;43052;52.588;13.396;2022-12-29T09:24:26;99959.38;;;19.90;44.10
57192;BME280;43052;52.588;13.396;2022-12-29T09:26:51;99963.66;;;21.13;40.72
57192;BME280;43052;52.588;13.396;2022-12-29T09:29:16;99958.69;;;21.21;40.27
57192;BME280;43052;52.588;13.396;2022-12-29T09:31:41;99967.25;;;20.83;41.15
57192;BME280;43052;52.588;13.396;2022-12-29T09:34:07;99958.66;;;21.50;39.81
57192;BME280;43052;52.588;13.396;2022-12-29T09:36:32;99961.44;;;22.31;38.32
57192;BME280;43052;52.588;13.396;2022-12-29T09:38:57;99964.38;;;22.13;38.14
57192;BME280;43052;52.588;13.396;2022-12-29T09:41:27;99948.84;;;21.23;39.12
57192;BME280;43052;52.588;13.396;2022-12-29T09:44:06;99950.13;;;19.97;40.73
57192;BME280;43052;52.588;13.396;2022-12-29T09:46:40;99959.91;;;18.48;43.37
57192;BME280;43052;52.588;13.396;2022-12-29T09:49:18;99954.41;;;17.98;44.90
57192;BME280;43052;52.588;13.396;2022-12-29T09:51:50;99939.19;;;19.39;42.91
57192;BME280;43052;52.588;13.396;2022-12-29T09:54:39;99954.94;;;21.53;39.24
57192;BME280;43052;52.588;13.396;2022-12-29T09:57:15;99956.69;;;22.62;37.04
57192;BME280;43052;52.588;13.396;2022-12-29T09:59:42;99951.13;;;23.16;36.28
57192;BME280;43052;52.588;13.396;2022-12-29T10:02:20;99955.47;;;23.81;35.32
57192;BME280;43052;52.588;13.396;2022-12-29T10:04:48;99953.88;;;23.78;34.79
57192;BME280;43052;52.588;13.396;2022-12-29T10:07:38;99971.06;;;22.46;35.44
57192;BME280;43052;52.588;13.396;2022-12-29T10:10:30;99967.50;;;20.33;39.61
57192;BME280;43052;52.588;13.396;2022-12-29T10:13:21;99973.13;;;18.66;42.08
57192;BME280;43052;52.588;13.396;2022-12-29T10:16:04;99963.81;;;17.10;45.36
57192;BME280;43052;52.588;13.396;2022-12-29T10:18:57;99974.97;;;16.34;47.03
57192;BME280;43052;52.588;13.396;2022-12-29T10:21:59;99968.38;;;15.79;48.32
57192;BME280;43052;52.588;13.396;2022-12-29T10:24:28;99954.88;;;15.65;49.39
57192;BME280;43052;52.588;13.396;2022-12-29T10:26:56;99953.75;;;17.57;46.21
57192;BME280;43052;52.588;13.396;2022-12-29T10:29:33;99959.16;;;18.97;43.24
57192;BME280;43052;52.588;13.396;2022-12-29T10:32:17;99953.41;;;19.54;41.97
57192;BME280;43052;52.588;13.396;2022-12-29T10:34:51;99942.59;;;18.76;42.77
57192;BME280;43052;52.588;13.396;2022-12-29T10:37:43;99951.03;;;17.58;44.95
57192;BME280;43052;52.588;13.396;2022-12-29T10:40:42;99944.16;;;16.76;47.06
57192;BME280;43052;52.588;13.396;2022-12-29T10:43:27;99940.69;;;17.34;46.30
57192;BME280;43052;52.588;13.396;2022-12-29T10:45:57;99942.97;;;18.68;44.40
57192;BME280;43052;52.588;13.396;2022-12-29T10:48:28;99941.84;;;20.03;41.71
57192;BME280;43052;52.588;13.396;2022-12-29T10:50:57;99937.44;;;20.18;40.90
57192;BME280;43052;52.588;13.396;2022-12-29T10:53:26;99943.47;;;19.26;42.28
57192;BME280;43052;52.588;13.396;2022-12-29T10:55:55;99932.97;;;18.05;44.57
57192;BME280;43052;52.588;13.396;2022-12-29T10:58:21;99948.88;;;17.09;46.55
57192;BME280;43052;52.588;13.396;2022-12-29T11:00:52;99942.41;;;16.35;47.98
57192;BME280;43052;52.588;13.396;2022-12-29T11:06:09;99935.75;;;15.38;50.41
57192;BME280;43052;52.588;13.396;2022-12-29T11:08:41;99942.34;;;15.02;51.23
57192;BME280;43052;52.588;13.396;2022-12-29T11:11:10;99925.91;;;14.71;52.07
57192;BME280;43052;52.588;13.396;2022-12-29T11:13:51;99927.81;;;14.41;52.75
57192;BME280;43052;52.588;13.396;2022-12-29T11:16:34;99932.72;;;14.25;53.41
57192;BME280;43052;52.588;13.396;2022-12-29T11:19:00;99937.38;;;14.17;53.74
57192;BME280;43052;52.588;13.396;2022-12-29T11:21:36;99938.88;;;13.99;54.21
57192;BME280;43052;52.588;13.396;2022-12-29T11:26:46;99938.63;;;13.78;55.01
57192;BME280;43052;52.588;13.396;2022-12-29T11:29:20;99932.69;;;13.73;55.44
57192;BME280;43052;52.588;13.396;2022-12-29T11:31:48;99945.97;;;13.68;55.55
57192;BME280;43052;52.588;13.396;2022-12-29T11:34:19;99936.66;;;13.58;55.96
57192;BME280;43052;52.588;13.396;2022-12-29T11:36:45;99949.84;;;13.56;56.04
57192;BME280;43052;52.588;13.396;2022-12-29T11:42:41;99960.88;;;13.38;56.75
57192;BME280;43052;52.588;13.396;2022-12-29T11:45:23;99944.22;;;13.37;57.00
57192;BME280;43052;52.588;13.396;2022-12-29T11:47:53;99946.63;;;13.46;57.16
57192;BME280;43052;52.588;13.396;2022-12-29T11:50:22;99950.97;;;13.47;57.19
57192;BME280;43052;52.588;13.396;2022-12-29T11:52:50;99950.88;;;13.51;57.27
57192;BME280;43052;52.588;13.396;2022-12-29T11:55:24;99953.66;;;13.44;57.75
57192;BME280;43052;52.588;13.396;2022-12-29T11:57:52;99948.00;;;13.28;58.25
57192;BME280;43052;52.588;13.396;2022-12-29T12:00:21;99951.13;;;13.11;58.68
57192;BME280;43052;52.588;13.396;2022-12-29T12:05:44;99959.63;;;12.88;59.75
57192;BME280;43052;52.588;13.396;2022-12-29T12:08:15;99954.00;;;12.70;60.25
57192;BME280;43052;52.588;13.396;2022-12-29T12:10:46;99952.78;;;12.51;60.86
57192;BME280;43052;52.588;13.396;2022-12-29T12:13:25;99964.56;;;12.34;61.84
57192;BME280;43052;52.588;13.396;2022-12-29T12:16:00;99969.25;;;12.21;61.83
57192;BME280;43052;52.588;13.396;2022-12-29T12:18:38;99966.91;;;12.11;61.96
57192;BME280;43052;52.588;13.396;2022-12-29T12:21:09;99981.00;;;12.06;62.21
57192;BME280;43052;52.588;13.396;2022-12-29T12:23:52;99995.94;;;12.03;62.42
57192;BME280;43052;52.588;13.396;2022-12-29T12:26:39;99981.25;;;11.94;62.91
57192;BME280;43052;52.588;13.396;2022-12-29T12:29:16;99961.38;;;11.85;63.09
57192;BME280;43052;52.588;13.396;2022-12-29T12:31:50;99976.25;;;11.83;63.71
57192;BME280;43052;52.588;13.396;2022-12-29T12:34:42;99963.09;;;11.85;63.68
57192;BME280;43052;52.588;13.396;2022-12-29T12:37:32;99959.66;;;11.83;64.08
57192;BME280;43052;52.588;13.396;2022-12-29T12:45:27;99952.81;;;11.77;63.97
57192;BME280;43052;52.588;13.396;2022-12-29T12:48:30;99969.47;;;11.74;64.07
57192;BME280;43052;52.588;13.396;2022-12-29T12:54:05;99956.34;;;11.76;63.86
57192;BME280;43052;52.588;13.396;2022-12-29T12:56:43;99975.69;;;11.70;63.81
57192;BME280;43052;52.588;13.396;2022-12-29T12:59:21;99961.94;;;11.59;63.88
57192;BME280;43052;52.588;13.396;2022-12-29T13:02:15;99986.41;;;11.58;64.05
57192;BME280;43052;52.588;13.396;2022-12-29T13:13:40;99982.75;;;11.26;64.19
57192;BME280;43052;52.588;13.396;2022-12-29T13:16:31;99986.34;;;11.20;64.37
57192;BME280;43052;52.588;13.396;2022-12-29T13:19:08;99983.84;;;11.14;64.55
57192;BME280;43052;52.588;13.396;2022-12-29T13:21:55;99981.34;;;11.08;64.77
57192;BME280;43052;52.588;13.396;2022-12-29T13:24:36;99983.34;;;10.96;64.77
57192;BME280;43052;52.588;13.396;2022-12-29T13:27:14;99990.34;;;10.94;65.00
57192;BME280;43052;52.588;13.396;2022-12-29T13:33:19;99991.44;;;10.82;65.95
57192;BME280;43052;52.588;13.396;2022-12-29T13:35:55;100000.16;;;10.81;66.15
57192;BME280;43052;52.588;13.396;2022-12-29T13:38:43;100004.59;;;10.76;66.58
57192;BME280;43052;52.588;13.396;2022-12-29T13:41:18;99994.22;;;10.72;66.92
57192;BME280;43052;52.588;13.396;2022-12-29T13:43:46;99973.59;;;10.56;67.16
57192;BME280;43052;52.588;13.396;2022-12-29T13:46:16;99995.25;;;10.64;67.42
57192;BME280;43052;52.588;13.396;2022-12-29T13:48:48;100002.31;;;10.59;67.66
57192;BME280;43052;52.588;13.396;2022-12-29T13:51:14;100001.50;;;10.56;67.72
57192;BME280;43052;52.588;13.396;2022-12-29T13:54:05;100010.28;;;10.52;67.78
57192;BME280;43052;52.588;13.396;2022-12-29T13:57:00;100019.88;;;10.51;67.82